createdAt,value
2022-09-20T00:02:03.372Z,8.98
2022-09-20T00:04:30.356Z,8.93
2022-09-20T00:06:58.207Z,8.87
2022-09-20T00:09:31.417Z,8.86
2022-09-20T00:11:58.367Z,8.83
2022-09-20T00:14:26.272Z,8.86
2022-09-20T00:16:54.332Z,8.81
2022-09-20T00:19:22.301Z,8.78
2022-09-20T00:21:50.261Z,8.88
2022-09-20T00:24:24.186Z,8.78
2022-09-20T00:26:52.492Z,8.83
2022-09-20T00:29:20.249Z,8.77
2022-09-20T00:31:53.319Z,8.76
2022-09-20T00:37:56.415Z,8.76
2022-09-20T00:43:23.692Z,8.73
2022-09-20T00:45:52.456Z,8.71
2022-09-20T00:48:30.345Z,8.74
2022-09-20T00:51:06.553Z,8.74
2022-09-20T00:53:45.505Z,8.71
2022-09-20T00:56:46.500Z,8.67
2022-09-20T00:59:22.550Z,8.63
2022-09-20T01:01:56.226Z,8.66
2022-09-20T01:04:27.436Z,8.64
2022-09-20T01:10:14.239Z,8.66
2022-09-20T01:13:13.365Z,8.64
2022-09-20T01:15:49.372Z,8.57
2022-09-20T01:21:14.824Z,8.59
2022-09-20T01:24:25.311Z,8.53
2022-09-20T01:27:18.903Z,8.54
2022-09-20T01:30:02.406Z,8.40
2022-09-20T01:32:48.789Z,8.39
2022-09-20T01:35:20.000Z,8.46
2022-09-20T01:38:44.753Z,8.43
2022-09-20T01:41:35.537Z,8.36
2022-09-20T01:44:13.488Z,8.42
2022-09-20T01:46:42.637Z,8.40
2022-09-20T01:49:42.408Z,8.36
2022-09-20T01:53:01.476Z,8.36
2022-09-20T01:56:02.072Z,8.38
2022-09-20T01:59:07.257Z,8.29
2022-09-20T02:01:53.061Z,8.29
2022-09-20T02:04:35.159Z,8.25
2022-09-20T02:07:36.145Z,8.19
2022-09-20T02:10:25.779Z,8.19
2022-09-20T02:13:03.485Z,8.22
2022-09-20T02:15:54.887Z,8.21
2022-09-20T02:18:47.135Z,8.30
2022-09-20T02:21:41.211Z,8.30
2022-09-20T02:24:23.274Z,8.19
2022-09-20T02:27:18.168Z,8.14
2022-09-20T02:30:19.774Z,8.04
2022-09-20T02:33:16.827Z,8.00
2022-09-20T02:35:51.786Z,8.01
2022-09-20T02:38:44.456Z,8.02
2022-09-20T02:41:30.567Z,8.08
2022-09-20T02:44:15.329Z,7.97
2022-09-20T02:46:42.359Z,8.00
2022-09-20T02:49:33.702Z,7.91
2022-09-20T02:52:15.307Z,7.90
2022-09-20T02:55:20.749Z,7.90
2022-09-20T02:58:15.620Z,7.93
2022-09-20T03:01:17.864Z,7.84
2022-09-20T03:04:08.023Z,7.84
2022-09-20T03:06:44.062Z,7.83
2022-09-20T03:09:38.541Z,7.81
2022-09-20T03:12:24.650Z,7.80
2022-09-20T03:15:24.128Z,7.73
2022-09-20T03:18:10.734Z,7.69
2022-09-20T03:21:24.197Z,7.69
2022-09-20T03:24:14.405Z,7.67
2022-09-20T03:27:19.689Z,7.64
2022-09-20T03:30:18.550Z,7.70
2022-09-20T03:33:29.474Z,7.66
2022-09-20T03:35:59.391Z,7.64
2022-09-20T03:38:44.528Z,7.49
2022-09-20T03:41:28.444Z,7.56
2022-09-20T03:43:56.153Z,7.56
2022-09-20T03:46:27.191Z,7.47
2022-09-20T03:49:22.278Z,7.43
2022-09-20T03:52:23.850Z,7.50
2022-09-20T03:55:10.308Z,7.55
2022-09-20T03:57:55.515Z,7.50
2022-09-20T04:00:50.173Z,7.49
2022-09-20T04:03:46.604Z,7.35
2022-09-20T04:06:45.133Z,7.38
2022-09-20T04:09:38.108Z,7.36
2022-09-20T04:12:16.455Z,7.28
2022-09-20T04:15:23.385Z,7.26
2022-09-20T04:18:35.457Z,7.25
2022-09-20T04:21:05.186Z,7.25
2022-09-20T04:24:27.084Z,7.26
2022-09-20T04:27:20.629Z,7.24
2022-09-20T04:30:06.983Z,7.19
2022-09-20T04:32:58.411Z,7.15
2022-09-20T04:36:12.457Z,7.17
2022-09-20T04:38:40.671Z,7.08
2022-09-20T04:41:54.784Z,6.98
2022-09-20T04:44:30.917Z,6.96
2022-09-20T04:50:25.443Z,6.91
2022-09-20T04:53:24.523Z,6.86
2022-09-20T04:56:03.078Z,6.90
2022-09-20T05:01:57.160Z,6.77
2022-09-20T05:05:10.120Z,6.80
2022-09-20T05:08:01.681Z,6.79
2022-09-20T05:10:38.148Z,6.84
2022-09-20T05:13:38.370Z,6.79
2022-09-20T05:16:20.788Z,6.77
2022-09-20T05:19:13.945Z,6.75
2022-09-20T05:22:43.946Z,6.80
2022-09-20T05:25:30.922Z,6.66
2022-09-20T05:28:30.432Z,6.77
2022-09-20T05:31:26.670Z,6.66
2022-09-20T05:34:39.378Z,6.62
2022-09-20T05:40:53.979Z,6.63
2022-09-20T05:43:34.046Z,6.75
2022-09-20T05:46:46.294Z,6.73
2022-09-20T05:49:36.988Z,6.75
2022-09-20T05:52:21.223Z,6.79
2022-09-20T05:55:29.842Z,6.90
2022-09-20T05:58:04.507Z,6.94
2022-09-20T06:01:14.955Z,6.97
2022-09-20T06:03:48.671Z,7.08
2022-09-20T06:07:04.091Z,7.19
2022-09-20T06:09:56.626Z,7.28
2022-09-20T06:12:50.757Z,7.35
2022-09-20T06:15:51.681Z,7.38
2022-09-20T06:18:29.349Z,7.64
2022-09-20T06:21:27.161Z,7.62
2022-09-20T06:26:54.828Z,7.86
2022-09-20T06:29:37.013Z,7.97
2022-09-20T06:32:11.461Z,8.00
2022-09-20T06:34:40.166Z,8.10
2022-09-20T06:38:00.000Z,8.15
2022-09-20T06:41:01.108Z,8.26
2022-09-20T06:43:31.321Z,8.29
2022-09-20T06:45:58.797Z,8.29
2022-09-20T06:48:31.171Z,8.43
2022-09-20T06:54:20.839Z,8.49
2022-09-20T06:56:55.282Z,8.68
2022-09-20T06:59:22.192Z,8.86
2022-09-20T07:01:50.179Z,8.88
2022-09-20T07:04:18.203Z,9.01
2022-09-20T07:06:51.239Z,9.08
2022-09-20T07:09:23.218Z,9.15
2022-09-20T07:11:50.153Z,9.12
2022-09-20T07:14:24.212Z,9.26
2022-09-20T07:16:53.481Z,9.31
2022-09-20T07:19:20.788Z,9.33
2022-09-20T07:21:48.303Z,9.49
2022-09-20T07:24:47.854Z,9.63
2022-09-20T07:27:21.495Z,9.75
2022-09-20T07:29:50.754Z,9.94
2022-09-20T07:32:21.930Z,10.08
2022-09-20T07:34:51.730Z,10.14
2022-09-20T07:37:25.209Z,10.11
2022-09-20T07:39:52.214Z,10.32
2022-09-20T07:42:20.253Z,10.49
2022-09-20T07:44:54.404Z,10.57
2022-09-20T07:47:26.539Z,10.69
2022-09-20T07:49:58.534Z,10.88
2022-09-20T07:52:26.169Z,11.01
2022-09-20T07:54:58.358Z,11.21
2022-09-20T07:57:26.401Z,11.32
2022-09-20T07:59:54.172Z,11.32
2022-09-20T08:02:26.284Z,11.65
2022-09-20T08:04:54.486Z,11.76
2022-09-20T08:07:22.323Z,11.97
2022-09-20T08:15:39.637Z,12.26
2022-09-20T08:18:34.386Z,12.49
2022-09-20T08:21:34.199Z,12.49
2022-09-20T08:24:03.940Z,12.70
2022-09-20T08:26:37.079Z,12.77
2022-09-20T08:29:08.279Z,13.05
2022-09-20T08:41:18.079Z,13.91
2022-09-20T08:43:48.096Z,14.14
2022-09-20T08:46:26.096Z,14.32
2022-09-20T08:48:55.852Z,14.29
2022-09-20T08:51:50.645Z,14.43
2022-09-20T08:54:18.884Z,14.29
2022-09-20T08:56:46.741Z,14.30
2022-09-20T08:59:17.318Z,14.59
2022-09-20T09:01:44.485Z,14.85
2022-09-20T09:04:16.461Z,14.90
2022-09-20T09:06:51.417Z,15.15
2022-09-20T09:09:29.202Z,15.12
2022-09-20T09:17:46.363Z,15.36
2022-09-20T09:20:24.013Z,15.63
2022-09-20T09:23:29.566Z,15.58
2022-09-20T09:25:56.296Z,15.46
2022-09-20T09:28:31.976Z,15.66
2022-09-20T09:31:23.029Z,15.73
2022-09-20T09:33:50.486Z,15.94
2022-09-20T09:36:29.996Z,15.90
2022-09-20T09:39:30.515Z,15.77
2022-09-20T09:42:01.094Z,15.73
2022-09-20T09:45:11.461Z,15.91
2022-09-20T09:47:38.440Z,16.25
2022-09-20T09:50:09.908Z,16.35
2022-09-20T09:53:15.369Z,16.36
2022-09-20T09:55:56.062Z,16.25
2022-09-20T09:58:32.939Z,16.34
2022-09-20T10:01:03.248Z,16.36
2022-09-20T10:04:14.206Z,16.48
2022-09-20T10:07:05.131Z,16.55
2022-09-20T10:09:41.318Z,16.66
2022-09-20T10:12:49.821Z,16.29
2022-09-20T10:15:28.161Z,16.03
2022-09-20T10:18:14.664Z,16.13
2022-09-20T10:21:08.029Z,16.05
2022-09-20T10:24:03.098Z,16.01
2022-09-20T10:26:52.580Z,16.29
2022-09-20T10:29:58.840Z,16.10
2022-09-20T10:33:25.365Z,15.97
2022-09-20T10:36:01.716Z,15.86
2022-09-20T10:38:39.177Z,15.94
2022-09-20T10:42:00.982Z,15.80
2022-09-20T10:44:58.994Z,15.93
2022-09-20T10:48:08.668Z,15.80
2022-09-20T10:50:53.915Z,15.91
2022-09-20T10:53:56.601Z,15.83
2022-09-20T10:56:26.908Z,16.04
2022-09-20T10:59:17.350Z,16.20
2022-09-20T11:01:47.256Z,16.15
2022-09-20T11:08:11.698Z,16.25
2022-09-20T11:10:54.187Z,16.20
2022-09-20T11:13:42.550Z,16.35
2022-09-20T11:16:18.708Z,16.13
2022-09-20T11:18:59.263Z,16.28
2022-09-20T11:21:54.815Z,16.15
2022-09-20T11:25:41.207Z,15.97
2022-09-20T11:28:31.819Z,15.98
2022-09-20T11:31:07.492Z,15.84
2022-09-20T11:33:49.144Z,15.93
2022-09-20T11:39:56.289Z,16.22
2022-09-20T11:42:49.299Z,15.97
2022-09-20T11:45:16.449Z,16.13
2022-09-20T11:47:57.195Z,15.98
2022-09-20T11:50:51.720Z,15.96
2022-09-20T11:53:46.057Z,15.91
2022-09-20T11:56:24.907Z,15.90
2022-09-20T11:58:59.034Z,15.90
2022-09-20T12:01:38.068Z,16.05
2022-09-20T12:04:39.014Z,15.76
2022-09-20T12:10:24.328Z,15.70
2022-09-20T12:12:59.555Z,15.66
2022-09-20T12:15:39.210Z,15.63
2022-09-20T12:18:29.223Z,15.76
2022-09-20T12:20:56.145Z,15.66
2022-09-20T12:23:42.552Z,15.65
2022-09-20T12:32:58.375Z,15.69
2022-09-20T12:35:35.577Z,15.63
2022-09-20T12:38:20.607Z,15.71
2022-09-20T12:41:08.613Z,15.80
2022-09-20T12:43:46.456Z,15.69
2022-09-20T12:46:34.037Z,15.67
2022-09-20T12:49:40.551Z,15.77
2022-09-20T12:52:56.085Z,15.80
2022-09-20T12:55:59.879Z,15.74
2022-09-20T12:58:51.436Z,15.84
2022-09-20T13:01:45.783Z,15.87
2022-09-20T13:04:39.973Z,15.70
2022-09-20T13:07:40.062Z,15.63
2022-09-20T13:10:30.630Z,15.71
2022-09-20T13:13:03.660Z,15.73
2022-09-20T13:15:57.135Z,15.81
2022-09-20T13:18:26.263Z,15.87
2022-09-20T13:23:55.359Z,15.81
2022-09-20T13:29:23.287Z,15.70
2022-09-20T13:31:50.982Z,15.65
2022-09-20T13:34:24.397Z,15.81
2022-09-20T13:37:01.955Z,15.91
2022-09-20T13:39:40.018Z,15.90
2022-09-20T13:42:19.876Z,15.87
2022-09-20T13:47:43.440Z,16.08
2022-09-20T13:50:30.551Z,15.97
2022-09-20T13:53:01.551Z,16.00
2022-09-20T13:55:37.542Z,16.03
2022-09-20T13:58:17.601Z,15.94
2022-09-20T14:00:54.918Z,16.00
2022-09-20T14:03:25.693Z,16.01
2022-09-20T14:09:35.048Z,15.86
2022-09-20T14:12:10.635Z,15.87
2022-09-20T14:14:39.181Z,15.97
2022-09-20T14:17:09.580Z,15.79
2022-09-20T14:19:43.952Z,15.83
2022-09-20T14:25:13.490Z,15.91
2022-09-20T14:27:41.226Z,16.01
2022-09-20T14:30:30.419Z,15.86
2022-09-20T14:32:59.137Z,15.93
2022-09-20T14:35:27.180Z,16.01
2022-09-20T14:38:04.450Z,15.94
2022-09-20T14:40:41.225Z,15.96
2022-09-20T14:43:24.214Z,15.94
2022-09-20T14:46:03.563Z,15.79
2022-09-20T14:48:38.603Z,15.79
2022-09-20T14:51:18.894Z,15.84
2022-09-20T14:54:12.555Z,15.83
2022-09-20T14:56:48.036Z,15.83
2022-09-20T14:59:20.001Z,15.73
2022-09-20T15:01:57.186Z,15.70
2022-09-20T15:04:25.732Z,15.55
2022-09-20T15:07:01.143Z,15.49
2022-09-20T15:09:28.493Z,15.52
2022-09-20T15:12:21.627Z,15.41
2022-09-20T15:14:50.381Z,15.46
2022-09-20T15:17:20.845Z,15.49
2022-09-20T15:19:50.139Z,15.53
2022-09-20T15:22:18.185Z,15.50
2022-09-20T15:24:46.408Z,15.46
2022-09-20T15:27:14.735Z,15.41
2022-09-20T15:29:42.256Z,15.49
2022-09-20T15:35:07.426Z,15.46
2022-09-20T15:37:34.684Z,15.41
2022-09-20T15:40:03.091Z,15.39
2022-09-20T15:42:35.205Z,15.36
2022-09-20T15:45:02.283Z,15.29
2022-09-20T15:47:30.938Z,15.21
2022-09-20T15:49:59.327Z,15.31
2022-09-20T15:55:51.833Z,15.29
2022-09-20T15:58:20.973Z,15.34
2022-09-20T16:03:31.056Z,15.36
2022-09-20T16:06:04.533Z,15.23
2022-09-20T16:08:37.550Z,15.19
2022-09-20T16:11:06.434Z,15.14
2022-09-20T16:13:43.993Z,15.16
2022-09-20T16:16:16.185Z,15.01
2022-09-20T16:19:07.961Z,14.94
2022-09-20T16:21:42.676Z,14.84
2022-09-20T16:24:22.154Z,14.80
2022-09-20T16:27:21.912Z,14.77
2022-09-20T16:29:55.760Z,14.79
2022-09-20T16:32:53.523Z,14.83
2022-09-20T16:35:26.202Z,14.55
2022-09-20T16:37:57.395Z,14.43
2022-09-20T16:40:24.217Z,14.35
2022-09-20T16:42:56.449Z,14.33
2022-09-20T16:45:24.474Z,14.24
2022-09-20T16:48:06.420Z,14.21
2022-09-20T16:50:36.200Z,14.07
2022-09-20T16:53:04.350Z,13.98
2022-09-20T16:55:33.911Z,13.93
2022-09-20T16:58:02.537Z,13.84
2022-09-20T17:00:31.460Z,13.84
2022-09-20T17:02:58.161Z,13.77
2022-09-20T17:08:18.259Z,13.57
2022-09-20T17:10:46.223Z,13.53
2022-09-20T17:13:15.394Z,13.43
2022-09-20T17:15:42.226Z,13.38
2022-09-20T17:18:14.884Z,13.28
2022-09-20T17:21:19.062Z,13.26
2022-09-20T17:24:00.296Z,13.16
2022-09-20T17:26:34.321Z,13.05
2022-09-20T17:29:28.396Z,12.90
2022-09-20T17:32:22.229Z,12.84
2022-09-20T17:34:50.166Z,12.79
2022-09-20T17:37:44.128Z,12.64
2022-09-20T17:40:12.231Z,12.61
2022-09-20T17:42:40.545Z,12.57
2022-09-20T17:48:00.259Z,12.43
2022-09-20T17:50:28.251Z,12.31
2022-09-20T17:55:57.619Z,12.29
2022-09-20T17:58:24.459Z,12.21
2022-09-20T18:00:56.513Z,12.14
2022-09-20T18:03:50.275Z,12.04
2022-09-20T18:06:52.345Z,11.93
2022-09-20T18:09:22.819Z,11.80
2022-09-20T18:17:36.455Z,11.69
2022-09-20T18:20:04.561Z,11.71
2022-09-20T18:22:32.137Z,11.66
2022-09-20T18:25:00.179Z,11.59
2022-09-20T18:27:29.361Z,11.46
2022-09-20T18:29:56.613Z,11.49
2022-09-20T18:32:33.245Z,11.48
2022-09-20T18:35:00.172Z,11.42
2022-09-20T18:40:27.895Z,11.30
2022-09-20T18:43:02.390Z,11.22
2022-09-20T18:45:58.524Z,11.29
2022-09-20T18:48:32.236Z,11.22
2022-09-20T18:51:32.350Z,11.22
2022-09-20T18:54:30.108Z,11.10
2022-09-20T18:57:03.610Z,11.04
2022-09-20T18:59:37.388Z,11.04
2022-09-20T19:02:50.772Z,10.94
2022-09-20T19:05:39.643Z,11.00
2022-09-20T19:08:34.333Z,10.98
2022-09-20T19:11:08.112Z,10.87
2022-09-20T19:13:58.540Z,10.77
2022-09-20T19:16:38.894Z,10.81
2022-09-20T19:22:06.448Z,10.67
2022-09-20T19:24:55.477Z,10.70
2022-09-20T19:27:23.413Z,10.55
2022-09-20T19:30:16.863Z,10.53
2022-09-20T19:32:44.501Z,10.52
2022-09-20T19:38:35.169Z,10.37
2022-09-20T19:44:06.058Z,10.28
2022-09-20T19:47:05.529Z,10.30
2022-09-20T19:49:47.343Z,10.26
2022-09-20T19:52:15.296Z,10.17
2022-09-20T19:55:13.758Z,10.15
2022-09-20T19:57:47.302Z,10.04
2022-09-20T20:00:16.831Z,9.99
2022-09-20T20:02:45.741Z,10.01
2022-09-20T20:05:26.320Z,9.97
2022-09-20T20:08:27.184Z,9.94
2022-09-20T20:11:09.118Z,9.87
2022-09-20T20:14:08.009Z,9.75
2022-09-20T20:17:10.357Z,9.79
2022-09-20T20:20:05.311Z,9.73
2022-09-20T20:22:56.804Z,9.73
2022-09-20T20:25:48.220Z,9.64
2022-09-20T20:28:16.290Z,9.60
2022-09-20T20:30:44.199Z,9.61
2022-09-20T20:33:20.923Z,9.64
2022-09-20T20:35:55.788Z,9.64
2022-09-20T20:38:28.461Z,9.57
2022-09-20T20:41:05.921Z,9.49
2022-09-20T20:43:42.013Z,9.47
2022-09-20T20:46:14.093Z,9.42
2022-09-20T20:48:42.680Z,9.38
2022-09-20T20:51:47.158Z,9.35
2022-09-20T20:54:14.339Z,9.26
2022-09-20T20:56:42.617Z,9.32
2022-09-20T20:59:10.426Z,9.35
2022-09-20T21:01:42.945Z,9.26
2022-09-20T21:04:11.502Z,9.16
2022-09-20T21:06:43.070Z,9.25
2022-09-20T21:09:16.544Z,9.21
2022-09-20T21:11:44.759Z,9.25
2022-09-20T21:14:17.795Z,9.22
2022-09-20T21:16:51.785Z,9.07
2022-09-20T21:19:29.246Z,9.00
2022-09-20T21:21:56.173Z,9.04
2022-09-20T21:24:24.276Z,8.94
2022-09-20T21:26:53.429Z,8.86
2022-09-20T21:29:20.664Z,8.88
2022-09-20T21:32:14.412Z,8.90
2022-09-20T21:37:34.344Z,8.87
2022-09-20T21:42:55.887Z,8.77
2022-09-20T21:45:29.528Z,8.83
2022-09-20T21:47:56.151Z,8.77
2022-09-20T21:50:24.157Z,8.83
2022-09-20T21:52:52.129Z,8.77
2022-09-20T21:55:44.447Z,8.71
2022-09-20T21:58:12.136Z,8.63
2022-09-20T22:00:45.191Z,8.61
2022-09-20T22:03:12.299Z,8.66
2022-09-20T22:06:20.647Z,8.56
2022-09-20T22:08:53.705Z,8.53
2022-09-20T22:11:48.082Z,8.43
2022-09-20T22:14:19.065Z,8.42
2022-09-20T22:16:47.668Z,8.43
2022-09-20T22:19:21.308Z,8.43
2022-09-20T22:21:49.922Z,8.49
2022-09-20T22:24:18.721Z,8.36
2022-09-20T22:26:57.246Z,8.33
2022-09-20T22:29:24.271Z,8.32
2022-09-20T22:31:52.187Z,8.25
2022-09-20T22:34:24.881Z,8.24
2022-09-20T22:37:04.555Z,8.21
2022-09-20T22:39:34.706Z,8.21
2022-09-20T22:42:03.270Z,8.18
2022-09-20T22:44:33.508Z,8.22
2022-09-20T22:47:26.284Z,8.22
2022-09-20T22:49:58.268Z,8.21
2022-09-20T22:52:26.179Z,8.14
2022-09-20T22:54:54.105Z,8.17
2022-09-20T22:57:26.345Z,8.14
2022-09-20T22:59:54.212Z,8.12
2022-09-20T23:02:27.255Z,8.17
2022-09-20T23:04:55.304Z,8.19
2022-09-20T23:07:28.149Z,8.17
2022-09-20T23:10:01.160Z,8.02
2022-09-20T23:12:28.157Z,8.04
2022-09-20T23:15:01.201Z,8.12
2022-09-20T23:17:28.137Z,7.97
2022-09-20T23:19:56.157Z,7.93
2022-09-20T23:22:24.379Z,7.90
2022-09-20T23:24:52.143Z,7.91
2022-09-20T23:27:25.161Z,7.89
2022-09-20T23:29:52.176Z,7.87
2022-09-20T23:35:12.146Z,7.84
2022-09-20T23:38:05.600Z,7.93
2022-09-20T23:40:33.719Z,7.87
2022-09-20T23:43:02.135Z,7.73
2022-09-20T23:45:34.259Z,7.69
2022-09-20T23:48:02.453Z,7.67
2022-09-20T23:50:30.149Z,7.74
2022-09-20T23:53:02.179Z,7.84
2022-09-20T23:55:30.243Z,7.73
2022-09-20T23:58:48.611Z,7.74
